sensor_id;sensor_type;location;lat;lon;timestamp;pressure;altitude;pressure_sealevel;temperature;humidity
6829;BME280;17930;48.592;8.868;2023-12-20T00:02:03;96821.50;;;5.74;100.00
6829;BME280;17930;48.592;8.868;2023-12-20T00:04:30;96816.94;;;5.81;100.00
6829;BME280;17930;48.592;8.868;2023-12-20T00:06:57;96809.41;;;5.80;100.00
6829;BME280;17930;48.592;8.868;2023-12-20T00:09:24;96801.91;;;5.78;100.00
6829;BME280;17930;48.592;8.868;2023-12-20T00:11:50;96797.91;;;5.71;100.00
6829;BME280;17930;48.592;8.868;2023-12-20T00:14:17;96799.56;;;5.77;100.00
6829;BME280;17930;48.592;8.868;2023-12-20T00:16:45;96799.88;;;5.64;100.00
6829;BME280;17930;48.592;8.868;2023-12-20T00:19:12;96793.31;;;5.57;100.00
6829;BME280;17930;48.592;8.868;2023-12-20T00:21:38;96798.66;;;5.50;100.00
6829;BME280;17930;48.592;8.868;2023-12-20T00:24:05;96803.72;;;5.45;100.00
6829;BME280;17930;48.592;8.868;2023-12-20T00:26:32;96801.34;;;5.39;100.00
6829;BME280;17930;48.592;8.868;2023-12-20T00:28:59;96815.59;;;5.41;100.00
6829;BME280;17930;48.592;8.868;2023-12-20T00:31:26;96809.38;;;5.42;100.00
6829;BME280;17930;48.592;8.868;2023-12-20T00:33:54;96805.81;;;5.27;100.00
6829;BME280;17930;48.592;8.868;2023-12-20T00:36:21;96796.16;;;5.22;100.00
6829;BME280;17930;48.592;8.868;2023-12-20T00:38:48;96790.38;;;5.15;100.00
6829;BME280;17930;48.592;8.868;2023-12-20T00:41:15;96797.03;;;5.28;100.00
6829;BME280;17930;48.592;8.868;2023-12-20T00:43:42;96787.25;;;5.30;100.00
6829;BME280;17930;48.592;8.868;2023-12-20T00:46:08;96786.84;;;5.38;100.00
6829;BME280;17930;48.592;8.868;2023-12-20T00:48:35;96782.22;;;5.40;100.00
6829;BME280;17930;48.592;8.868;2023-12-20T00:51:03;96785.06;;;5.38;100.00
6829;BME280;17930;48.592;8.868;2023-12-20T00:53:30;96796.66;;;5.36;100.00
6829;BME280;17930;48.592;8.868;2023-12-20T00:55:57;96800.72;;;5.32;100.00
6829;BME280;17930;48.592;8.868;2023-12-20T00:58:24;96798.66;;;5.34;100.00
6829;BME280;17930;48.592;8.868;2023-12-20T01:00:52;96799.38;;;5.29;100.00
6829;BME280;17930;48.592;8.868;2023-12-20T01:03:19;96803.69;;;5.24;100.00
6829;BME280;17930;48.592;8.868;2023-12-20T01:05:45;96807.00;;;5.19;100.00
6829;BME280;17930;48.592;8.868;2023-12-20T01:08:13;96810.63;;;5.18;100.00
6829;BME280;17930;48.592;8.868;2023-12-20T01:10:40;96822.97;;;5.16;100.00
6829;BME280;17930;48.592;8.868;2023-12-20T01:13:07;96829.09;;;5.10;100.00
6829;BME280;17930;48.592;8.868;2023-12-20T01:15:34;96825.03;;;5.14;100.00
6829;BME280;17930;48.592;8.868;2023-12-20T01:18:01;96823.44;;;5.13;100.00
6829;BME280;17930;48.592;8.868;2023-12-20T01:20:27;96828.13;;;5.16;100.00
6829;BME280;17930;48.592;8.868;2023-12-20T01:22:54;96828.31;;;5.10;100.00
6829;BME280;17930;48.592;8.868;2023-12-20T01:25:22;96825.56;;;5.16;100.00
6829;BME280;17930;48.592;8.868;2023-12-20T01:27:49;96827.03;;;5.12;100.00
6829;BME280;17930;48.592;8.868;2023-12-20T01:30:16;96820.31;;;5.11;100.00
6829;BME280;17930;48.592;8.868;2023-12-20T01:32:43;96828.94;;;5.01;100.00
6829;BME280;17930;48.592;8.868;2023-12-20T01:35:10;96835.03;;;4.95;100.00
6829;BME280;17930;48.592;8.868;2023-12-20T01:37:37;96831.97;;;5.14;100.00
6829;BME280;17930;48.592;8.868;2023-12-20T01:40:05;96829.22;;;5.04;100.00
6829;BME280;17930;48.592;8.868;2023-12-20T01:42:34;96837.78;;;5.05;100.00
6829;BME280;17930;48.592;8.868;2023-12-20T01:45:01;96832.06;;;5.19;100.00
6829;BME280;17930;48.592;8.868;2023-12-20T01:47:28;96833.16;;;5.23;100.00
6829;BME280;17930;48.592;8.868;2023-12-20T01:49:54;96834.25;;;5.10;100.00
6829;BME280;17930;48.592;8.868;2023-12-20T01:52:22;96841.78;;;5.12;100.00
6829;BME280;17930;48.592;8.868;2023-12-20T01:54:50;96833.88;;;5.18;100.00
6829;BME280;17930;48.592;8.868;2023-12-20T01:57:17;96823.97;;;5.15;100.00
6829;BME280;17930;48.592;8.868;2023-12-20T01:59:46;96819.53;;;5.27;100.00
6829;BME280;17930;48.592;8.868;2023-12-20T02:02:14;96817.94;;;5.26;100.00
6829;BME280;17930;48.592;8.868;2023-12-20T02:04:40;96809.66;;;5.24;100.00
6829;BME280;17930;48.592;8.868;2023-12-20T02:07:07;96807.47;;;5.16;100.00
6829;BME280;17930;48.592;8.868;2023-12-20T02:09:35;96814.75;;;5.19;100.00
6829;BME280;17930;48.592;8.868;2023-12-20T02:12:03;96815.31;;;5.21;100.00
6829;BME280;17930;48.592;8.868;2023-12-20T02:14:30;96821.41;;;5.15;100.00
6829;BME280;17930;48.592;8.868;2023-12-20T02:16:58;96817.03;;;5.16;100.00
6829;BME280;17930;48.592;8.868;2023-12-20T02:19:24;96812.78;;;5.26;100.00
6829;BME280;17930;48.592;8.868;2023-12-20T02:22:05;96815.63;;;5.08;100.00
6829;BME280;17930;48.592;8.868;2023-12-20T02:24:31;96816.22;;;5.15;100.00
6829;BME280;17930;48.592;8.868;2023-12-20T02:26:58;96815.31;;;5.21;100.00
6829;BME280;17930;48.592;8.868;2023-12-20T02:29:25;96819.38;;;5.17;100.00
6829;BME280;17930;48.592;8.868;2023-12-20T02:31:52;96820.31;;;5.11;100.00
6829;BME280;17930;48.592;8.868;2023-12-20T02:34:19;96819.63;;;5.16;100.00
6829;BME280;17930;48.592;8.868;2023-12-20T02:36:45;96812.25;;;5.08;100.00
6829;BME280;17930;48.592;8.868;2023-12-20T02:39:13;96807.47;;;5.16;100.00
6829;BME280;17930;48.592;8.868;2023-12-20T02:41:40;96810.53;;;5.13;100.00
6829;BME280;17930;48.592;8.868;2023-12-20T02:44:07;96815.94;;;5.28;100.00
6829;BME280;17930;48.592;8.868;2023-12-20T02:46:33;96807.59;;;5.26;100.00
6829;BME280;17930;48.592;8.868;2023-12-20T02:49:00;96810.38;;;5.20;100.00
6829;BME280;17930;48.592;8.868;2023-12-20T02:51:27;96809.97;;;5.28;100.00
6829;BME280;17930;48.592;8.868;2023-12-20T02:53:53;96817.47;;;5.29;100.00
6829;BME280;17930;48.592;8.868;2023-12-20T02:56:21;96815.84;;;5.23;100.00
6829;BME280;17930;48.592;8.868;2023-12-20T02:58:48;96823.13;;;5.26;100.00
6829;BME280;17930;48.592;8.868;2023-12-20T03:01:14;96818.91;;;5.20;100.00
6829;BME280;17930;48.592;8.868;2023-12-20T03:03:41;96821.09;;;5.28;100.00
6829;BME280;17930;48.592;8.868;2023-12-20T03:06:08;96823.97;;;5.15;100.00
6829;BME280;17930;48.592;8.868;2023-12-20T03:08:34;96818.28;;;5.13;100.00
6829;BME280;17930;48.592;8.868;2023-12-20T03:11:01;96821.25;;;5.06;100.00
6829;BME280;17930;48.592;8.868;2023-12-20T03:13:29;96824.53;;;5.17;100.00
6829;BME280;17930;48.592;8.868;2023-12-20T03:15:56;96826.75;;;5.09;100.00
6829;BME280;17930;48.592;8.868;2023-12-20T03:18:22;96825.34;;;5.02;100.00
6829;BME280;17930;48.592;8.868;2023-12-20T03:20:49;96824.06;;;5.04;100.00
6829;BME280;17930;48.592;8.868;2023-12-20T03:23:16;96824.94;;;5.09;100.00
6829;BME280;17930;48.592;8.868;2023-12-20T03:25:43;96826.88;;;5.03;100.00
6829;BME280;17930;48.592;8.868;2023-12-20T03:28:09;96826.25;;;4.96;100.00
6829;BME280;17930;48.592;8.868;2023-12-20T03:30:37;96838.63;;;4.94;100.00
6829;BME280;17930;48.592;8.868;2023-12-20T03:33:04;96841.47;;;5.08;100.00
6829;BME280;17930;48.592;8.868;2023-12-20T03:35:30;96845.53;;;5.05;100.00
6829;BME280;17930;48.592;8.868;2023-12-20T03:37:57;96846.38;;;4.94;100.00
6829;BME280;17930;48.592;8.868;2023-12-20T03:40:25;96855.59;;;4.90;100.00
6829;BME280;17930;48.592;8.868;2023-12-20T03:42:51;96857.09;;;4.86;100.00
6829;BME280;17930;48.592;8.868;2023-12-20T03:45:19;96853.50;;;4.87;100.00
6829;BME280;17930;48.592;8.868;2023-12-20T03:47:46;96862.25;;;4.86;100.00
6829;BME280;17930;48.592;8.868;2023-12-20T03:50:14;96860.47;;;4.86;100.00
6829;BME280;17930;48.592;8.868;2023-12-20T03:52:40;96858.03;;;4.80;100.00
6829;BME280;17930;48.592;8.868;2023-12-20T03:55:07;96855.38;;;4.75;100.00
6829;BME280;17930;48.592;8.868;2023-12-20T03:57:34;96854.81;;;4.73;100.00
6829;BME280;17930;48.592;8.868;2023-12-20T04:00:01;96858.50;;;4.77;100.00
6829;BME280;17930;48.592;8.868;2023-12-20T04:02:27;96859.59;;;4.81;100.00
6829;BME280;17930;48.592;8.868;2023-12-20T04:04:55;96863.19;;;4.80;100.00
6829;BME280;17930;48.592;8.868;2023-12-20T04:07:22;96867.72;;;4.73;100.00
6829;BME280;17930;48.592;8.868;2023-12-20T04:09:49;96861.47;;;4.69;100.00
6829;BME280;17930;48.592;8.868;2023-12-20T04:12:15;96869.66;;;4.66;100.00
6829;BME280;17930;48.592;8.868;2023-12-20T04:14:42;96867.25;;;4.76;100.00
6829;BME280;17930;48.592;8.868;2023-12-20T04:17:09;96873.91;;;4.72;100.00
6829;BME280;17930;48.592;8.868;2023-12-20T04:19:35;96864.44;;;4.77;100.00
6829;BME280;17930;48.592;8.868;2023-12-20T04:22:03;96871.78;;;4.69;100.00
6829;BME280;17930;48.592;8.868;2023-12-20T04:24:30;96872.75;;;4.79;100.00
6829;BME280;17930;48.592;8.868;2023-12-20T04:26:57;96866.63;;;4.69;100.00
6829;BME280;17930;48.592;8.868;2023-12-20T04:29:23;96868.19;;;4.70;100.00
6829;BME280;17930;48.592;8.868;2023-12-20T04:31:50;96874.22;;;4.75;100.00
6829;BME280;17930;48.592;8.868;2023-12-20T04:34:17;96860.44;;;4.70;100.00
6829;BME280;17930;48.592;8.868;2023-12-20T04:36:43;96864.25;;;4.67;100.00
6829;BME280;17930;48.592;8.868;2023-12-20T04:39:12;96863.63;;;4.60;100.00
6829;BME280;17930;48.592;8.868;2023-12-20T04:41:39;96872.22;;;4.66;100.00
6829;BME280;17930;48.592;8.868;2023-12-20T04:44:06;96885.88;;;4.50;100.00
6829;BME280;17930;48.592;8.868;2023-12-20T04:46:33;96885.53;;;4.58;100.00
6829;BME280;17930;48.592;8.868;2023-12-20T04:49:02;96880.25;;;4.53;100.00
6829;BME280;17930;48.592;8.868;2023-12-20T04:51:29;96885.00;;;4.45;100.00
6829;BME280;17930;48.592;8.868;2023-12-20T04:53:55;96880.38;;;4.58;100.00
6829;BME280;17930;48.592;8.868;2023-12-20T04:56:23;96895.28;;;4.56;100.00
6829;BME280;17930;48.592;8.868;2023-12-20T04:58:51;96895.97;;;4.52;100.00
6829;BME280;17930;48.592;8.868;2023-12-20T05:01:17;96894.28;;;4.57;100.00
6829;BME280;17930;48.592;8.868;2023-12-20T05:03:44;96899.03;;;4.49;100.00
6829;BME280;17930;48.592;8.868;2023-12-20T05:06:11;96900.84;;;4.48;100.00
6829;BME280;17930;48.592;8.868;2023-12-20T05:08:38;96899.56;;;4.62;100.00
6829;BME280;17930;48.592;8.868;2023-12-20T05:11:04;96901.69;;;4.65;100.00
6829;BME280;17930;48.592;8.868;2023-12-20T05:13:32;96909.03;;;4.73;100.00
6829;BME280;17930;48.592;8.868;2023-12-20T05:15:59;96912.91;;;4.59;100.00
6829;BME280;17930;48.592;8.868;2023-12-20T05:18:25;96924.50;;;4.57;100.00
6829;BME280;17930;48.592;8.868;2023-12-20T05:20:52;96924.53;;;4.73;100.00
6829;BME280;17930;48.592;8.868;2023-12-20T05:23:19;96931.56;;;4.61;100.00
6829;BME280;17930;48.592;8.868;2023-12-20T05:25:45;96934.94;;;4.50;100.00
6829;BME280;17930;48.592;8.868;2023-12-20T05:28:12;96942.34;;;4.58;100.00
6829;BME280;17930;48.592;8.868;2023-12-20T05:30:41;96940.44;;;4.54;100.00
6829;BME280;17930;48.592;8.868;2023-12-20T05:33:08;96939.75;;;4.58;100.00
6829;BME280;17930;48.592;8.868;2023-12-20T05:35:35;96937.97;;;4.47;100.00
6829;BME280;17930;48.592;8.868;2023-12-20T05:38:02;96951.88;;;4.57;100.00
6829;BME280;17930;48.592;8.868;2023-12-20T05:40:29;96949.88;;;4.48;100.00
6829;BME280;17930;48.592;8.868;2023-12-20T05:42:56;96945.41;;;4.44;100.00
6829;BME280;17930;48.592;8.868;2023-12-20T05:45:22;96946.00;;;4.73;100.00
6829;BME280;17930;48.592;8.868;2023-12-20T05:47:50;96948.13;;;4.76;100.00
6829;BME280;17930;48.592;8.868;2023-12-20T05:50:17;96949.72;;;4.66;100.00
6829;BME280;17930;48.592;8.868;2023-12-20T05:52:44;96943.66;;;4.72;100.00
6829;BME280;17930;48.592;8.868;2023-12-20T05:55:10;96945.00;;;4.63;100.00
6829;BME280;17930;48.592;8.868;2023-12-20T05:57:37;96952.53;;;4.64;100.00
6829;BME280;17930;48.592;8.868;2023-12-20T06:00:05;96946.38;;;4.93;100.00
6829;BME280;17930;48.592;8.868;2023-12-20T06:02:31;96948.34;;;4.75;100.00
6829;BME280;17930;48.592;8.868;2023-12-20T06:04:59;96954.34;;;4.64;100.00
6829;BME280;17930;48.592;8.868;2023-12-20T06:07:27;96962.16;;;4.80;100.00
6829;BME280;17930;48.592;8.868;2023-12-20T06:09:53;96978.69;;;4.68;100.00
6829;BME280;17930;48.592;8.868;2023-12-20T06:12:20;96988.63;;;4.48;100.00
6829;BME280;17930;48.592;8.868;2023-12-20T06:14:47;96976.13;;;4.57;100.00
6829;BME280;17930;48.592;8.868;2023-12-20T06:17:13;96980.22;;;4.41;100.00
6829;BME280;17930;48.592;8.868;2023-12-20T06:19:40;96983.78;;;4.40;100.00
6829;BME280;17930;48.592;8.868;2023-12-20T06:22:11;96972.50;;;4.18;100.00
6829;BME280;17930;48.592;8.868;2023-12-20T06:24:38;96972.06;;;3.99;100.00
6829;BME280;17930;48.592;8.868;2023-12-20T06:27:05;96975.19;;;3.78;100.00
6829;BME280;17930;48.592;8.868;2023-12-20T06:29:31;96972.94;;;3.70;100.00
6829;BME280;17930;48.592;8.868;2023-12-20T06:32:00;96969.81;;;3.68;100.00
6829;BME280;17930;48.592;8.868;2023-12-20T06:34:27;96975.09;;;3.84;100.00
6829;BME280;17930;48.592;8.868;2023-12-20T06:36:53;96975.41;;;3.88;100.00
6829;BME280;17930;48.592;8.868;2023-12-20T06:39:21;96980.25;;;3.96;100.00
6829;BME280;17930;48.592;8.868;2023-12-20T06:41:48;96986.88;;;4.03;100.00
6829;BME280;17930;48.592;8.868;2023-12-20T06:44:15;96987.84;;;4.25;100.00
6829;BME280;17930;48.592;8.868;2023-12-20T06:46:41;96990.56;;;4.30;100.00
6829;BME280;17930;48.592;8.868;2023-12-20T06:49:08;96990.41;;;4.36;100.00
6829;BME280;17930;48.592;8.868;2023-12-20T06:51:35;96994.56;;;4.37;100.00
6829;BME280;17930;48.592;8.868;2023-12-20T06:54:01;96990.75;;;4.40;100.00
6829;BME280;17930;48.592;8.868;2023-12-20T06:56:29;96993.44;;;4.45;100.00
6829;BME280;17930;48.592;8.868;2023-12-20T06:58:56;97002.06;;;4.50;100.00
6829;BME280;17930;48.592;8.868;2023-12-20T07:01:22;97007.34;;;4.55;100.00
6829;BME280;17930;48.592;8.868;2023-12-20T07:03:49;97006.22;;;4.62;100.00
6829;BME280;17930;48.592;8.868;2023-12-20T07:06:16;97020.03;;;4.68;100.00
6829;BME280;17930;48.592;8.868;2023-12-20T07:08:42;97021.44;;;4.75;100.00
6829;BME280;17930;48.592;8.868;2023-12-20T07:11:09;97014.13;;;4.84;100.00
6829;BME280;17930;48.592;8.868;2023-12-20T07:13:37;97023.78;;;4.88;100.00
6829;BME280;17930;48.592;8.868;2023-12-20T07:16:04;97018.84;;;4.87;100.00
6829;BME280;17930;48.592;8.868;2023-12-20T07:18:31;97016.38;;;4.92;100.00
6829;BME280;17930;48.592;8.868;2023-12-20T07:20:57;97017.34;;;5.02;100.00
6829;BME280;17930;48.592;8.868;2023-12-20T07:23:24;97019.50;;;4.94;100.00
6829;BME280;17930;48.592;8.868;2023-12-20T07:25:52;97026.69;;;4.92;100.00
6829;BME280;17930;48.592;8.868;2023-12-20T07:28:18;97038.03;;;4.91;100.00
6829;BME280;17930;48.592;8.868;2023-12-20T07:30:47;97028.41;;;4.86;100.00
6829;BME280;17930;48.592;8.868;2023-12-20T07:33:13;97042.66;;;4.89;100.00
6829;BME280;17930;48.592;8.868;2023-12-20T07:35:40;97054.00;;;4.88;100.00
6829;BME280;17930;48.592;8.868;2023-12-20T07:38:07;97048.03;;;4.87;100.00
6829;BME280;17930;48.592;8.868;2023-12-20T07:40:33;97053.88;;;4.83;100.00
6829;BME280;17930;48.592;8.868;2023-12-20T07:43:00;97055.25;;;4.74;100.00
6829;BME280;17930;48.592;8.868;2023-12-20T07:45:27;97054.91;;;4.82;100.00
6829;BME280;17930;48.592;8.868;2023-12-20T07:47:55;97056.22;;;4.96;100.00
6829;BME280;17930;48.592;8.868;2023-12-20T07:50:21;97048.69;;;4.94;100.00
6829;BME280;17930;48.592;8.868;2023-12-20T07:52:48;97059.06;;;4.83;100.00
6829;BME280;17930;48.592;8.868;2023-12-20T07:55:15;97065.81;;;4.84;100.00
6829;BME280;17930;48.592;8.868;2023-12-20T07:57:41;97069.59;;;4.93;100.00
6829;BME280;17930;48.592;8.868;2023-12-20T08:00:09;97069.78;;;5.03;100.00
6829;BME280;17930;48.592;8.868;2023-12-20T08:02:36;97066.22;;;4.92;100.00
6829;BME280;17930;48.592;8.868;2023-12-20T08:05:05;97070.41;;;4.93;100.00
6829;BME280;17930;48.592;8.868;2023-12-20T08:07:32;97068.34;;;4.95;100.00
6829;BME280;17930;48.592;8.868;2023-12-20T08:09:59;97063.31;;;5.00;100.00
6829;BME280;17930;48.592;8.868;2023-12-20T08:12:26;97074.50;;;5.06;100.00
6829;BME280;17930;48.592;8.868;2023-12-20T08:14:53;97061.38;;;5.07;100.00
6829;BME280;17930;48.592;8.868;2023-12-20T08:17:20;97065.63;;;5.13;100.00
6829;BME280;17930;48.592;8.868;2023-12-20T08:19:46;97077.50;;;5.14;100.00
6829;BME280;17930;48.592;8.868;2023-12-20T08:22:14;97066.31;;;5.08;100.00
6829;BME280;17930;48.592;8.868;2023-12-20T08:24:41;97074.69;;;5.15;100.00
6829;BME280;17930;48.592;8.868;2023-12-20T08:27:07;97069.09;;;5.18;100.00
6829;BME280;17930;48.592;8.868;2023-12-20T08:29:34;97074.38;;;5.12;100.00
6829;BME280;17930;48.592;8.868;2023-12-20T08:32:02;97092.59;;;5.06;100.00
6829;BME280;17930;48.592;8.868;2023-12-20T08:34:28;97089.81;;;4.96;100.00
6829;BME280;17930;48.592;8.868;2023-12-20T08:36:55;97097.94;;;4.88;100.00
6829;BME280;17930;48.592;8.868;2023-12-20T08:39:23;97107.44;;;4.87;100.00
6829;BME280;17930;48.592;8.868;2023-12-20T08:41:50;97106.88;;;4.97;100.00
6829;BME280;17930;48.592;8.868;2023-12-20T08:44:17;97106.00;;;4.91;100.00
6829;BME280;17930;48.592;8.868;2023-12-20T08:46:43;97105.31;;;4.96;100.00
6829;BME280;17930;48.592;8.868;2023-12-20T08:49:10;97111.13;;;5.03;100.00
6829;BME280;17930;48.592;8.868;2023-12-20T08:51:36;97110.78;;;5.10;100.00
6829;BME280;17930;48.592;8.868;2023-12-20T08:54:09;97115.84;;;5.06;100.00
6829;BME280;17930;48.592;8.868;2023-12-20T08:56:37;97113.63;;;4.98;100.00
6829;BME280;17930;48.592;8.868;2023-12-20T08:59:03;97117.81;;;4.99;100.00
6829;BME280;17930;48.592;8.868;2023-12-20T09:01:30;97105.44;;;5.01;100.00
6829;BME280;17930;48.592;8.868;2023-12-20T09:03:57;97093.75;;;4.98;100.00
6829;BME280;17930;48.592;8.868;2023-12-20T09:06:23;97078.94;;;4.82;100.00
6829;BME280;17930;48.592;8.868;2023-12-20T09:08:50;97083.34;;;4.70;100.00
6829;BME280;17930;48.592;8.868;2023-12-20T09:11:17;97076.94;;;4.61;100.00
6829;BME280;17930;48.592;8.868;2023-12-20T09:13:45;97071.09;;;4.55;100.00
6829;BME280;17930;48.592;8.868;2023-12-20T09:16:12;97078.31;;;4.53;100.00
6829;BME280;17930;48.592;8.868;2023-12-20T09:18:41;97076.50;;;4.53;100.00
6829;BME280;17930;48.592;8.868;2023-12-20T09:21:07;97075.28;;;4.44;100.00
6829;BME280;17930;48.592;8.868;2023-12-20T09:23:34;97073.69;;;4.43;100.00
6829;BME280;17930;48.592;8.868;2023-12-20T09:26:02;97067.97;;;4.41;100.00
6829;BME280;17930;48.592;8.868;2023-12-20T09:28:29;97074.72;;;4.42;100.00
6829;BME280;17930;48.592;8.868;2023-12-20T09:30:59;97066.06;;;4.48;100.00
6829;BME280;17930;48.592;8.868;2023-12-20T09:33:26;97074.38;;;4.50;100.00
6829;BME280;17930;48.592;8.868;2023-12-20T09:35:52;97065.16;;;4.54;100.00
6829;BME280;17930;48.592;8.868;2023-12-20T09:38:19;97073.91;;;4.53;100.00
6829;BME280;17930;48.592;8.868;2023-12-20T09:40:46;97068.28;;;4.56;100.00
6829;BME280;17930;48.592;8.868;2023-12-20T09:43:14;97084.69;;;4.73;100.00
6829;BME280;17930;48.592;8.868;2023-12-20T09:45:45;97086.25;;;4.74;100.00
6829;BME280;17930;48.592;8.868;2023-12-20T09:48:17;97090.72;;;4.90;100.00
6829;BME280;17930;48.592;8.868;2023-12-20T09:50:44;97094.28;;;5.11;100.00
6829;BME280;17930;48.592;8.868;2023-12-20T09:53:15;97088.84;;;5.24;100.00
6829;BME280;17930;48.592;8.868;2023-12-20T09:55:42;97095.03;;;5.23;100.00
6829;BME280;17930;48.592;8.868;2023-12-20T09:58:09;97097.72;;;5.28;100.00
6829;BME280;17930;48.592;8.868;2023-12-20T10:00:35;97095.44;;;5.32;100.00
6829;BME280;17930;48.592;8.868;2023-12-20T10:03:03;97103.09;;;5.38;100.00
6829;BME280;17930;48.592;8.868;2023-12-20T10:05:34;97088.13;;;5.40;100.00
6829;BME280;17930;48.592;8.868;2023-12-20T10:08:01;97094.28;;;5.39;100.00
6829;BME280;17930;48.592;8.868;2023-12-20T10:10:28;97093.19;;;5.35;100.00
6829;BME280;17930;48.592;8.868;2023-12-20T10:13:03;97097.81;;;5.33;100.00
6829;BME280;17930;48.592;8.868;2023-12-20T10:15:30;97088.66;;;5.42;100.00
6829;BME280;17930;48.592;8.868;2023-12-20T10:17:57;97086.91;;;5.59;100.00
6829;BME280;17930;48.592;8.868;2023-12-20T10:20:24;97085.97;;;5.93;100.00
6829;BME280;17930;48.592;8.868;2023-12-20T10:22:52;97082.00;;;6.18;100.00
6829;BME280;17930;48.592;8.868;2023-12-20T10:25:20;97078.84;;;6.32;100.00
6829;BME280;17930;48.592;8.868;2023-12-20T10:27:47;97073.38;;;6.29;100.00
6829;BME280;17930;48.592;8.868;2023-12-20T10:30:14;97061.81;;;6.36;100.00
6829;BME280;17930;48.592;8.868;2023-12-20T10:32:41;97054.66;;;6.43;100.00
6829;BME280;17930;48.592;8.868;2023-12-20T10:35:08;97052.28;;;6.58;100.00
6829;BME280;17930;48.592;8.868;2023-12-20T10:37:35;97053.72;;;6.49;100.00
6829;BME280;17930;48.592;8.868;2023-12-20T10:40:05;97046.81;;;6.76;100.00
6829;BME280;17930;48.592;8.868;2023-12-20T10:42:32;97050.16;;;6.93;100.00
6829;BME280;17930;48.592;8.868;2023-12-20T10:45:00;97047.47;;;6.66;100.00
6829;BME280;17930;48.592;8.868;2023-12-20T10:47:27;97053.56;;;6.39;100.00
6829;BME280;17930;48.592;8.868;2023-12-20T10:49:54;97058.84;;;6.28;100.00
6829;BME280;17930;48.592;8.868;2023-12-20T10:52:23;97057.16;;;6.38;100.00
6829;BME280;17930;48.592;8.868;2023-12-20T10:54:50;97055.97;;;6.24;100.00
6829;BME280;17930;48.592;8.868;2023-12-20T10:57:18;97053.66;;;6.28;100.00
6829;BME280;17930;48.592;8.868;2023-12-20T10:59:45;97052.56;;;6.24;100.00
6829;BME280;17930;48.592;8.868;2023-12-20T11:02:13;97046.66;;;6.28;100.00
6829;BME280;17930;48.592;8.868;2023-12-20T11:04:49;97050.97;;;6.39;100.00
6829;BME280;17930;48.592;8.868;2023-12-20T11:07:21;97056.78;;;6.46;100.00
6829;BME280;17930;48.592;8.868;2023-12-20T11:09:56;97059.03;;;6.59;100.00
6829;BME280;17930;48.592;8.868;2023-12-20T11:12:34;97056.47;;;6.80;100.00
6829;BME280;17930;48.592;8.868;2023-12-20T11:15:06;97054.47;;;6.66;100.00
6829;BME280;17930;48.592;8.868;2023-12-20T11:17:33;97049.38;;;6.71;100.00
6829;BME280;17930;48.592;8.868;2023-12-20T11:20:07;97041.91;;;6.58;100.00
6829;BME280;17930;48.592;8.868;2023-12-20T11:22:36;97048.06;;;6.52;100.00
6829;BME280;17930;48.592;8.868;2023-12-20T11:25:06;97046.38;;;6.41;100.00
6829;BME280;17930;48.592;8.868;2023-12-20T11:27:35;97041.19;;;6.25;100.00
6829;BME280;17930;48.592;8.868;2023-12-20T11:30:04;97032.09;;;6.22;100.00
6829;BME280;17930;48.592;8.868;2023-12-20T11:32:34;97034.00;;;6.11;100.00
6829;BME280;17930;48.592;8.868;2023-12-20T11:35:16;97034.00;;;6.11;100.00
6829;BME280;17930;48.592;8.868;2023-12-20T11:37:43;97037.91;;;5.97;100.00
6829;BME280;17930;48.592;8.868;2023-12-20T11:40:13;97039.56;;;6.03;100.00
6829;BME280;17930;48.592;8.868;2023-12-20T11:42:42;97034.47;;;6.08;100.00
6829;BME280;17930;48.592;8.868;2023-12-20T11:45:13;97029.44;;;6.17;100.00
6829;BME280;17930;48.592;8.868;2023-12-20T11:47:40;97033.66;;;6.23;100.00
6829;BME280;17930;48.592;8.868;2023-12-20T11:50:09;97037.13;;;6.12;100.00
6829;BME280;17930;48.592;8.868;2023-12-20T11:52:36;97040.81;;;5.84;100.00
6829;BME280;17930;48.592;8.868;2023-12-20T11:55:04;97041.19;;;5.76;100.00
6829;BME280;17930;48.592;8.868;2023-12-20T11:57:30;97044.59;;;5.65;100.00
6829;BME280;17930;48.592;8.868;2023-12-20T11:59:59;97049.13;;;5.58;100.00
6829;BME280;17930;48.592;8.868;2023-12-20T12:02:26;97034.28;;;5.54;100.00
6829;BME280;17930;48.592;8.868;2023-12-20T12:04:52;97033.84;;;5.57;100.00
6829;BME280;17930;48.592;8.868;2023-12-20T12:07:22;97033.94;;;5.61;100.00
6829;BME280;17930;48.592;8.868;2023-12-20T12:09:49;97030.16;;;5.69;100.00
6829;BME280;17930;48.592;8.868;2023-12-20T12:12:17;97023.69;;;5.66;100.00
6829;BME280;17930;48.592;8.868;2023-12-20T12:14:44;97013.91;;;5.85;100.00
6829;BME280;17930;48.592;8.868;2023-12-20T12:17:13;97013.13;;;6.01;100.00
6829;BME280;17930;48.592;8.868;2023-12-20T12:19:39;97016.09;;;6.09;100.00
6829;BME280;17930;48.592;8.868;2023-12-20T12:22:07;97008.91;;;5.95;100.00
6829;BME280;17930;48.592;8.868;2023-12-20T12:24:36;97007.38;;;5.99;100.00
6829;BME280;17930;48.592;8.868;2023-12-20T12:27:05;97009.06;;;6.05;100.00
6829;BME280;17930;48.592;8.868;2023-12-20T12:29:33;97011.69;;;6.10;100.00
6829;BME280;17930;48.592;8.868;2023-12-20T12:31:59;97003.69;;;6.11;100.00
6829;BME280;17930;48.592;8.868;2023-12-20T12:34:28;96998.53;;;6.11;100.00
6829;BME280;17930;48.592;8.868;2023-12-20T12:36:55;96997.31;;;6.18;100.00
6829;BME280;17930;48.592;8.868;2023-12-20T12:39:23;96992.72;;;6.20;100.00
6829;BME280;17930;48.592;8.868;2023-12-20T12:41:50;96993.66;;;6.14;100.00
6829;BME280;17930;48.592;8.868;2023-12-20T12:44:17;96991.53;;;6.11;100.00
6829;BME280;17930;48.592;8.868;2023-12-20T12:46:44;96996.19;;;5.93;100.00
6829;BME280;17930;48.592;8.868;2023-12-20T12:49:11;96984.06;;;5.66;100.00
6829;BME280;17930;48.592;8.868;2023-12-20T12:51:39;96979.00;;;5.71;100.00
6829;BME280;17930;48.592;8.868;2023-12-20T12:54:06;96986.75;;;5.71;100.00
6829;BME280;17930;48.592;8.868;2023-12-20T12:56:32;96986.53;;;5.89;100.00
6829;BME280;17930;48.592;8.868;2023-12-20T12:59:00;96992.91;;;5.98;100.00
6829;BME280;17930;48.592;8.868;2023-12-20T13:01:26;96995.88;;;5.90;100.00
6829;BME280;17930;48.592;8.868;2023-12-20T13:03:53;96988.66;;;5.92;100.00
6829;BME280;17930;48.592;8.868;2023-12-20T13:06:20;96988.09;;;5.90;100.00
6829;BME280;17930;48.592;8.868;2023-12-20T13:08:48;96990.06;;;5.83;100.00
6829;BME280;17930;48.592;8.868;2023-12-20T13:11:15;96986.38;;;5.79;100.00